sensor_id;sensor_type;location;lat;lon;timestamp;P1;durP1;ratioP1;P2;durP2;ratioP2
74191;SDS011;62551;51.180;4.366;2022-10-19T00:01:22;5.93;;;2.22;;
74191;SDS011;62551;51.180;4.366;2022-10-19T00:03:50;7.03;;;2.50;;
74191;SDS011;62551;51.180;4.366;2022-10-19T00:06:18;7.38;;;2.35;;
74191;SDS011;62551;51.180;4.366;2022-10-19T00:08:49;6.75;;;2.40;;
74191;SDS011;62551;51.180;4.366;2022-10-19T00:11:17;5.32;;;2.63;;
74191;SDS011;62551;51.180;4.366;2022-10-19T00:13:44;6.95;;;2.75;;
74191;SDS011;62551;51.180;4.366;2022-10-19T00:16:12;6.50;;;2.97;;
74191;SDS011;62551;51.180;4.366;2022-10-19T00:18:41;5.70;;;2.17;;
74191;SDS011;62551;51.180;4.366;2022-10-19T00:21:09;9.98;;;3.10;;
74191;SDS011;62551;51.180;4.366;2022-10-19T00:23:37;8.35;;;2.88;;
74191;SDS011;62551;51.180;4.366;2022-10-19T00:26:04;6.60;;;2.67;;
74191;SDS011;62551;51.180;4.366;2022-10-19T00:28:31;8.70;;;3.20;;
74191;SDS011;62551;51.180;4.366;2022-10-19T00:31:00;5.50;;;2.70;;
74191;SDS011;62551;51.180;4.366;2022-10-19T00:33:28;6.78;;;2.67;;
74191;SDS011;62551;51.180;4.366;2022-10-19T00:35:56;9.90;;;2.67;;
74191;SDS011;62551;51.180;4.366;2022-10-19T00:38:23;6.63;;;2.67;;
74191;SDS011;62551;51.180;4.366;2022-10-19T00:40:51;4.88;;;2.38;;
74191;SDS011;62551;51.180;4.366;2022-10-19T00:43:19;7.53;;;3.03;;
74191;SDS011;62551;51.180;4.366;2022-10-19T00:45:47;9.48;;;2.88;;
74191;SDS011;62551;51.180;4.366;2022-10-19T00:48:16;10.25;;;3.08;;
74191;SDS011;62551;51.180;4.366;2022-10-19T00:50:43;10.32;;;2.65;;
74191;SDS011;62551;51.180;4.366;2022-10-19T00:53:12;4.68;;;2.90;;
74191;SDS011;62551;51.180;4.366;2022-10-19T00:55:39;8.18;;;2.83;;
74191;SDS011;62551;51.180;4.366;2022-10-19T00:58:07;7.03;;;2.88;;
74191;SDS011;62551;51.180;4.366;2022-10-19T01:00:34;7.43;;;3.05;;
74191;SDS011;62551;51.180;4.366;2022-10-19T01:03:01;10.23;;;3.10;;
74191;SDS011;62551;51.180;4.366;2022-10-19T01:05:29;8.15;;;2.47;;
74191;SDS011;62551;51.180;4.366;2022-10-19T01:07:56;6.45;;;2.40;;
74191;SDS011;62551;51.180;4.366;2022-10-19T01:10:27;11.75;;;3.33;;
74191;SDS011;62551;51.180;4.366;2022-10-19T01:13:02;9.45;;;2.60;;
74191;SDS011;62551;51.180;4.366;2022-10-19T01:15:34;8.05;;;3.13;;
74191;SDS011;62551;51.180;4.366;2022-10-19T01:20:35;6.75;;;2.80;;
74191;SDS011;62551;51.180;4.366;2022-10-19T01:23:17;10.70;;;3.55;;
74191;SDS011;62551;51.180;4.366;2022-10-19T01:25:54;8.07;;;2.60;;
74191;SDS011;62551;51.180;4.366;2022-10-19T01:28:30;5.85;;;2.65;;
74191;SDS011;62551;51.180;4.366;2022-10-19T01:31:00;6.05;;;2.70;;
74191;SDS011;62551;51.180;4.366;2022-10-19T01:33:33;6.85;;;3.00;;
74191;SDS011;62551;51.180;4.366;2022-10-19T01:36:05;8.85;;;2.67;;
74191;SDS011;62551;51.180;4.366;2022-10-19T01:38:35;5.80;;;2.40;;
74191;SDS011;62551;51.180;4.366;2022-10-19T01:41:08;6.95;;;3.15;;
74191;SDS011;62551;51.180;4.366;2022-10-19T01:43:38;6.68;;;3.15;;
74191;SDS011;62551;51.180;4.366;2022-10-19T01:46:10;10.30;;;3.65;;
74191;SDS011;62551;51.180;4.366;2022-10-19T01:48:38;11.45;;;3.05;;
74191;SDS011;62551;51.180;4.366;2022-10-19T01:51:08;6.60;;;2.60;;
74191;SDS011;62551;51.180;4.366;2022-10-19T01:53:45;7.80;;;3.08;;
74191;SDS011;62551;51.180;4.366;2022-10-19T01:56:13;7.85;;;2.80;;
74191;SDS011;62551;51.180;4.366;2022-10-19T01:58:41;8.13;;;3.58;;
74191;SDS011;62551;51.180;4.366;2022-10-19T02:01:12;6.35;;;2.90;;
74191;SDS011;62551;51.180;4.366;2022-10-19T02:03:41;8.07;;;2.85;;
74191;SDS011;62551;51.180;4.366;2022-10-19T02:06:09;9.55;;;3.63;;
74191;SDS011;62551;51.180;4.366;2022-10-19T02:08:39;9.23;;;3.20;;
74191;SDS011;62551;51.180;4.366;2022-10-19T02:11:06;8.50;;;3.25;;
74191;SDS011;62551;51.180;4.366;2022-10-19T02:13:33;7.72;;;2.92;;
74191;SDS011;62551;51.180;4.366;2022-10-19T02:16:02;11.70;;;3.28;;
74191;SDS011;62551;51.180;4.366;2022-10-19T02:18:33;8.57;;;3.67;;
74191;SDS011;62551;51.180;4.366;2022-10-19T02:21:02;12.88;;;3.40;;
74191;SDS011;62551;51.180;4.366;2022-10-19T02:23:30;5.82;;;2.75;;
74191;SDS011;62551;51.180;4.366;2022-10-19T02:25:57;8.57;;;3.10;;
74191;SDS011;62551;51.180;4.366;2022-10-19T02:28:25;6.88;;;2.78;;
74191;SDS011;62551;51.180;4.366;2022-10-19T02:30:52;8.10;;;2.80;;
74191;SDS011;62551;51.180;4.366;2022-10-19T02:33:20;8.70;;;2.72;;
74191;SDS011;62551;51.180;4.366;2022-10-19T02:35:48;6.15;;;3.28;;
74191;SDS011;62551;51.180;4.366;2022-10-19T02:38:17;7.35;;;2.95;;
74191;SDS011;62551;51.180;4.366;2022-10-19T02:40:48;9.45;;;2.78;;
74191;SDS011;62551;51.180;4.366;2022-10-19T02:43:17;7.15;;;2.42;;
74191;SDS011;62551;51.180;4.366;2022-10-19T02:45:48;9.18;;;2.80;;
74191;SDS011;62551;51.180;4.366;2022-10-19T02:48:18;8.25;;;3.08;;
74191;SDS011;62551;51.180;4.366;2022-10-19T02:50:45;8.75;;;3.08;;
74191;SDS011;62551;51.180;4.366;2022-10-19T02:53:14;7.82;;;2.50;;
74191;SDS011;62551;51.180;4.366;2022-10-19T02:55:41;7.85;;;2.60;;
74191;SDS011;62551;51.180;4.366;2022-10-19T02:58:09;6.47;;;2.58;;
74191;SDS011;62551;51.180;4.366;2022-10-19T03:00:36;11.43;;;2.70;;
74191;SDS011;62551;51.180;4.366;2022-10-19T03:03:03;10.88;;;2.58;;
74191;SDS011;62551;51.180;4.366;2022-10-19T03:05:33;9.15;;;2.47;;
74191;SDS011;62551;51.180;4.366;2022-10-19T03:08:00;5.50;;;2.40;;
74191;SDS011;62551;51.180;4.366;2022-10-19T03:10:28;6.22;;;2.78;;
74191;SDS011;62551;51.180;4.366;2022-10-19T03:12:56;5.45;;;2.53;;
74191;SDS011;62551;51.180;4.366;2022-10-19T03:15:23;8.45;;;2.47;;
74191;SDS011;62551;51.180;4.366;2022-10-19T03:17:53;6.75;;;2.67;;
74191;SDS011;62551;51.180;4.366;2022-10-19T03:20:21;6.82;;;2.35;;
74191;SDS011;62551;51.180;4.366;2022-10-19T03:22:48;7.95;;;2.72;;
74191;SDS011;62551;51.180;4.366;2022-10-19T03:25:15;8.25;;;2.60;;
74191;SDS011;62551;51.180;4.366;2022-10-19T03:27:44;6.32;;;2.83;;
74191;SDS011;62551;51.180;4.366;2022-10-19T03:30:11;6.63;;;2.75;;
74191;SDS011;62551;51.180;4.366;2022-10-19T03:32:38;8.50;;;3.05;;
74191;SDS011;62551;51.180;4.366;2022-10-19T03:35:06;8.95;;;2.50;;
74191;SDS011;62551;51.180;4.366;2022-10-19T03:37:33;6.18;;;2.63;;
74191;SDS011;62551;51.180;4.366;2022-10-19T03:40:00;8.50;;;2.63;;
74191;SDS011;62551;51.180;4.366;2022-10-19T03:42:28;6.63;;;2.65;;
74191;SDS011;62551;51.180;4.366;2022-10-19T03:44:56;7.30;;;2.63;;
74191;SDS011;62551;51.180;4.366;2022-10-19T03:47:23;8.30;;;2.40;;
74191;SDS011;62551;51.180;4.366;2022-10-19T03:49:50;9.10;;;2.88;;
74191;SDS011;62551;51.180;4.366;2022-10-19T03:52:18;6.57;;;3.45;;
74191;SDS011;62551;51.180;4.366;2022-10-19T03:54:48;4.90;;;2.50;;
74191;SDS011;62551;51.180;4.366;2022-10-19T03:57:15;11.93;;;3.25;;
74191;SDS011;62551;51.180;4.366;2022-10-19T03:59:42;6.45;;;3.17;;
74191;SDS011;62551;51.180;4.366;2022-10-19T04:02:13;8.55;;;2.75;;
74191;SDS011;62551;51.180;4.366;2022-10-19T04:04:40;6.47;;;2.50;;
74191;SDS011;62551;51.180;4.366;2022-10-19T04:07:07;7.80;;;3.00;;
74191;SDS011;62551;51.180;4.366;2022-10-19T04:09:35;6.15;;;2.78;;
74191;SDS011;62551;51.180;4.366;2022-10-19T04:12:02;6.30;;;2.72;;
74191;SDS011;62551;51.180;4.366;2022-10-19T04:14:29;7.40;;;2.80;;
74191;SDS011;62551;51.180;4.366;2022-10-19T04:16:56;11.48;;;4.10;;
74191;SDS011;62551;51.180;4.366;2022-10-19T04:19:25;10.73;;;2.63;;
74191;SDS011;62551;51.180;4.366;2022-10-19T04:21:52;5.75;;;2.60;;
74191;SDS011;62551;51.180;4.366;2022-10-19T04:24:19;9.45;;;2.97;;
74191;SDS011;62551;51.180;4.366;2022-10-19T04:26:47;6.32;;;2.90;;
74191;SDS011;62551;51.180;4.366;2022-10-19T04:29:14;7.93;;;2.92;;
74191;SDS011;62551;51.180;4.366;2022-10-19T04:31:43;5.65;;;2.78;;
74191;SDS011;62551;51.180;4.366;2022-10-19T04:34:10;7.05;;;2.90;;
74191;SDS011;62551;51.180;4.366;2022-10-19T04:36:39;8.82;;;2.95;;
74191;SDS011;62551;51.180;4.366;2022-10-19T04:39:06;6.82;;;3.28;;
74191;SDS011;62551;51.180;4.366;2022-10-19T04:41:33;8.13;;;2.90;;
74191;SDS011;62551;51.180;4.366;2022-10-19T04:44:01;8.73;;;3.42;;
74191;SDS011;62551;51.180;4.366;2022-10-19T04:46:30;10.25;;;3.20;;
74191;SDS011;62551;51.180;4.366;2022-10-19T04:48:58;6.70;;;2.58;;
74191;SDS011;62551;51.180;4.366;2022-10-19T04:51:28;13.50;;;3.38;;
74191;SDS011;62551;51.180;4.366;2022-10-19T04:53:57;6.00;;;2.60;;
74191;SDS011;62551;51.180;4.366;2022-10-19T04:56:24;6.13;;;2.53;;
74191;SDS011;62551;51.180;4.366;2022-10-19T04:58:53;8.77;;;2.97;;
74191;SDS011;62551;51.180;4.366;2022-10-19T05:01:21;8.50;;;2.80;;
74191;SDS011;62551;51.180;4.366;2022-10-19T05:03:52;9.25;;;3.05;;
74191;SDS011;62551;51.180;4.366;2022-10-19T05:06:19;9.23;;;3.35;;
74191;SDS011;62551;51.180;4.366;2022-10-19T05:08:47;9.98;;;3.20;;
74191;SDS011;62551;51.180;4.366;2022-10-19T05:11:16;11.02;;;3.67;;
74191;SDS011;62551;51.180;4.366;2022-10-19T05:13:43;14.10;;;3.42;;
74191;SDS011;62551;51.180;4.366;2022-10-19T05:16:11;9.82;;;3.45;;
74191;SDS011;62551;51.180;4.366;2022-10-19T05:18:39;8.10;;;3.85;;
74191;SDS011;62551;51.180;4.366;2022-10-19T05:21:07;9.40;;;3.25;;
74191;SDS011;62551;51.180;4.366;2022-10-19T05:23:34;6.90;;;3.53;;
74191;SDS011;62551;51.180;4.366;2022-10-19T05:26:02;6.65;;;2.85;;
74191;SDS011;62551;51.180;4.366;2022-10-19T05:28:31;10.23;;;3.72;;
74191;SDS011;62551;51.180;4.366;2022-10-19T05:31:06;6.43;;;2.90;;
74191;SDS011;62551;51.180;4.366;2022-10-19T05:33:33;12.25;;;3.13;;
74191;SDS011;62551;51.180;4.366;2022-10-19T05:36:08;8.20;;;3.28;;
74191;SDS011;62551;51.180;4.366;2022-10-19T05:38:36;7.57;;;2.90;;
74191;SDS011;62551;51.180;4.366;2022-10-19T05:41:03;8.77;;;3.13;;
74191;SDS011;62551;51.180;4.366;2022-10-19T05:43:31;12.43;;;3.95;;
74191;SDS011;62551;51.180;4.366;2022-10-19T05:46:01;8.35;;;3.90;;
74191;SDS011;62551;51.180;4.366;2022-10-19T05:48:28;9.60;;;3.25;;
74191;SDS011;62551;51.180;4.366;2022-10-19T05:50:57;9.30;;;4.05;;
74191;SDS011;62551;51.180;4.366;2022-10-19T05:53:25;11.35;;;4.15;;
74191;SDS011;62551;51.180;4.366;2022-10-19T05:55:52;9.40;;;3.92;;
74191;SDS011;62551;51.180;4.366;2022-10-19T05:58:19;13.02;;;4.07;;
74191;SDS011;62551;51.180;4.366;2022-10-19T06:00:51;12.05;;;4.90;;
74191;SDS011;62551;51.180;4.366;2022-10-19T06:03:18;8.55;;;4.45;;
74191;SDS011;62551;51.180;4.366;2022-10-19T06:05:46;17.38;;;5.65;;
74191;SDS011;62551;51.180;4.366;2022-10-19T06:08:13;11.77;;;4.70;;
74191;SDS011;62551;51.180;4.366;2022-10-19T06:10:40;11.43;;;4.70;;
74191;SDS011;62551;51.180;4.366;2022-10-19T06:13:08;14.68;;;4.95;;
74191;SDS011;62551;51.180;4.366;2022-10-19T06:15:35;11.80;;;4.25;;
74191;SDS011;62551;51.180;4.366;2022-10-19T06:18:06;9.70;;;4.32;;
74191;SDS011;62551;51.180;4.366;2022-10-19T06:20:33;12.23;;;4.25;;
74191;SDS011;62551;51.180;4.366;2022-10-19T06:23:01;11.23;;;4.68;;
74191;SDS011;62551;51.180;4.366;2022-10-19T06:25:29;14.57;;;4.53;;
74191;SDS011;62551;51.180;4.366;2022-10-19T06:27:56;9.15;;;4.55;;
74191;SDS011;62551;51.180;4.366;2022-10-19T06:30:23;8.68;;;4.90;;
74191;SDS011;62551;51.180;4.366;2022-10-19T06:32:51;15.60;;;5.65;;
74191;SDS011;62551;51.180;4.366;2022-10-19T06:35:19;9.75;;;4.32;;
74191;SDS011;62551;51.180;4.366;2022-10-19T06:37:46;15.77;;;5.60;;
74191;SDS011;62551;51.180;4.366;2022-10-19T06:40:14;9.15;;;4.88;;
74191;SDS011;62551;51.180;4.366;2022-10-19T06:42:41;11.60;;;5.15;;
74191;SDS011;62551;51.180;4.366;2022-10-19T06:45:08;9.25;;;4.72;;
74191;SDS011;62551;51.180;4.366;2022-10-19T06:47:36;14.30;;;5.97;;
74191;SDS011;62551;51.180;4.366;2022-10-19T06:50:03;12.63;;;4.82;;
74191;SDS011;62551;51.180;4.366;2022-10-19T06:52:32;10.15;;;5.70;;
74191;SDS011;62551;51.180;4.366;2022-10-19T06:54:59;13.35;;;5.00;;
74191;SDS011;62551;51.180;4.366;2022-10-19T06:57:26;11.88;;;4.57;;
74191;SDS011;62551;51.180;4.366;2022-10-19T06:59:53;10.90;;;4.57;;
74191;SDS011;62551;51.180;4.366;2022-10-19T07:02:21;11.00;;;4.57;;
74191;SDS011;62551;51.180;4.366;2022-10-19T07:04:48;10.43;;;4.78;;
74191;SDS011;62551;51.180;4.366;2022-10-19T07:07:15;10.77;;;4.55;;
74191;SDS011;62551;51.180;4.366;2022-10-19T07:09:44;12.32;;;4.75;;
74191;SDS011;62551;51.180;4.366;2022-10-19T07:12:11;13.88;;;4.55;;
74191;SDS011;62551;51.180;4.366;2022-10-19T07:14:38;11.52;;;4.88;;
74191;SDS011;62551;51.180;4.366;2022-10-19T07:17:06;11.30;;;4.38;;
74191;SDS011;62551;51.180;4.366;2022-10-19T07:19:33;14.20;;;4.75;;
74191;SDS011;62551;51.180;4.366;2022-10-19T07:22:00;7.35;;;3.72;;
74191;SDS011;62551;51.180;4.366;2022-10-19T07:24:27;14.32;;;4.75;;
74191;SDS011;62551;51.180;4.366;2022-10-19T07:26:56;9.32;;;4.40;;
74191;SDS011;62551;51.180;4.366;2022-10-19T07:29:23;8.95;;;4.15;;
74191;SDS011;62551;51.180;4.366;2022-10-19T07:31:50;11.45;;;4.28;;
74191;SDS011;62551;51.180;4.366;2022-10-19T07:34:17;11.38;;;4.40;;
74191;SDS011;62551;51.180;4.366;2022-10-19T07:36:47;11.02;;;4.10;;
74191;SDS011;62551;51.180;4.366;2022-10-19T07:39:14;8.95;;;4.38;;
74191;SDS011;62551;51.180;4.366;2022-10-19T07:41:42;10.18;;;4.15;;
74191;SDS011;62551;51.180;4.366;2022-10-19T07:44:11;14.50;;;4.55;;
74191;SDS011;62551;51.180;4.366;2022-10-19T07:46:38;8.10;;;3.75;;
74191;SDS011;62551;51.180;4.366;2022-10-19T07:49:07;8.88;;;4.00;;
74191;SDS011;62551;51.180;4.366;2022-10-19T07:51:34;11.90;;;3.50;;
74191;SDS011;62551;51.180;4.366;2022-10-19T07:54:02;10.70;;;4.00;;
74191;SDS011;62551;51.180;4.366;2022-10-19T07:56:29;9.90;;;3.13;;
74191;SDS011;62551;51.180;4.366;2022-10-19T07:58:57;12.13;;;3.72;;
74191;SDS011;62551;51.180;4.366;2022-10-19T08:01:27;8.82;;;3.35;;
74191;SDS011;62551;51.180;4.366;2022-10-19T08:03:54;13.25;;;3.30;;
74191;SDS011;62551;51.180;4.366;2022-10-19T08:06:22;6.97;;;3.45;;
74191;SDS011;62551;51.180;4.366;2022-10-19T08:08:49;11.10;;;3.20;;
74191;SDS011;62551;51.180;4.366;2022-10-19T08:11:18;8.55;;;2.95;;
74191;SDS011;62551;51.180;4.366;2022-10-19T08:13:46;7.40;;;3.50;;
74191;SDS011;62551;51.180;4.366;2022-10-19T08:16:19;8.73;;;3.17;;
74191;SDS011;62551;51.180;4.366;2022-10-19T08:18:48;8.30;;;3.03;;
74191;SDS011;62551;51.180;4.366;2022-10-19T08:21:15;10.48;;;3.55;;
74191;SDS011;62551;51.180;4.366;2022-10-19T08:23:43;6.93;;;2.90;;
74191;SDS011;62551;51.180;4.366;2022-10-19T08:26:10;9.45;;;3.58;;
74191;SDS011;62551;51.180;4.366;2022-10-19T08:28:37;12.57;;;3.58;;
74191;SDS011;62551;51.180;4.366;2022-10-19T08:31:08;6.45;;;2.60;;
74191;SDS011;62551;51.180;4.366;2022-10-19T08:33:36;7.95;;;2.70;;
74191;SDS011;62551;51.180;4.366;2022-10-19T08:36:05;8.88;;;2.67;;
74191;SDS011;62551;51.180;4.366;2022-10-19T08:38:33;4.45;;;2.53;;
74191;SDS011;62551;51.180;4.366;2022-10-19T08:41:03;8.52;;;2.75;;
74191;SDS011;62551;51.180;4.366;2022-10-19T08:43:32;4.95;;;2.55;;
74191;SDS011;62551;51.180;4.366;2022-10-19T08:46:13;7.50;;;2.70;;
74191;SDS011;62551;51.180;4.366;2022-10-19T08:48:43;6.13;;;2.70;;
74191;SDS011;62551;51.180;4.366;2022-10-19T08:51:12;6.70;;;2.55;;
74191;SDS011;62551;51.180;4.366;2022-10-19T08:53:42;6.57;;;2.55;;
74191;SDS011;62551;51.180;4.366;2022-10-19T08:56:17;6.25;;;2.90;;
74191;SDS011;62551;51.180;4.366;2022-10-19T08:58:51;7.68;;;3.22;;
74191;SDS011;62551;51.180;4.366;2022-10-19T09:01:26;6.47;;;2.75;;
74191;SDS011;62551;51.180;4.366;2022-10-19T09:03:58;9.80;;;2.95;;
74191;SDS011;62551;51.180;4.366;2022-10-19T09:06:31;7.15;;;2.83;;
74191;SDS011;62551;51.180;4.366;2022-10-19T09:08:59;5.90;;;2.42;;
74191;SDS011;62551;51.180;4.366;2022-10-19T09:11:27;6.80;;;2.80;;
74191;SDS011;62551;51.180;4.366;2022-10-19T09:13:59;4.68;;;2.35;;
74191;SDS011;62551;51.180;4.366;2022-10-19T09:16:29;8.43;;;2.53;;
74191;SDS011;62551;51.180;4.366;2022-10-19T09:18:56;5.18;;;2.40;;
74191;SDS011;62551;51.180;4.366;2022-10-19T09:21:25;7.25;;;2.35;;
74191;SDS011;62551;51.180;4.366;2022-10-19T09:23:56;7.80;;;3.17;;
74191;SDS011;62551;51.180;4.366;2022-10-19T09:26:29;6.60;;;2.55;;
74191;SDS011;62551;51.180;4.366;2022-10-19T09:28:57;6.07;;;2.78;;
74191;SDS011;62551;51.180;4.366;2022-10-19T09:31:27;5.07;;;3.00;;
74191;SDS011;62551;51.180;4.366;2022-10-19T09:33:58;4.13;;;2.22;;
74191;SDS011;62551;51.180;4.366;2022-10-19T09:36:28;6.97;;;2.50;;
74191;SDS011;62551;51.180;4.366;2022-10-19T09:38:59;11.07;;;3.38;;
74191;SDS011;62551;51.180;4.366;2022-10-19T09:41:26;9.25;;;2.95;;
74191;SDS011;62551;51.180;4.366;2022-10-19T09:43:54;5.93;;;2.88;;
74191;SDS011;62551;51.180;4.366;2022-10-19T09:46:26;8.70;;;2.70;;
74191;SDS011;62551;51.180;4.366;2022-10-19T09:48:57;8.65;;;2.92;;
74191;SDS011;62551;51.180;4.366;2022-10-19T09:51:24;9.02;;;2.63;;
74191;SDS011;62551;51.180;4.366;2022-10-19T09:53:52;8.35;;;2.97;;
74191;SDS011;62551;51.180;4.366;2022-10-19T09:56:22;9.27;;;2.78;;
74191;SDS011;62551;51.180;4.366;2022-10-19T09:58:50;5.68;;;3.10;;
74191;SDS011;62551;51.180;4.366;2022-10-19T10:04:05;10.60;;;3.20;;
74191;SDS011;62551;51.180;4.366;2022-10-19T10:06:33;7.65;;;3.10;;
74191;SDS011;62551;51.180;4.366;2022-10-19T10:09:01;6.35;;;2.78;;
74191;SDS011;62551;51.180;4.366;2022-10-19T10:11:31;11.05;;;3.10;;
74191;SDS011;62551;51.180;4.366;2022-10-19T10:14:02;6.30;;;2.85;;
74191;SDS011;62551;51.180;4.366;2022-10-19T10:16:32;8.95;;;2.63;;
74191;SDS011;62551;51.180;4.366;2022-10-19T10:19:02;9.32;;;3.42;;
74191;SDS011;62551;51.180;4.366;2022-10-19T10:21:30;10.32;;;3.38;;
74191;SDS011;62551;51.180;4.366;2022-10-19T10:24:00;10.60;;;3.00;;
74191;SDS011;62551;51.180;4.366;2022-10-19T10:26:31;7.70;;;3.08;;
74191;SDS011;62551;51.180;4.366;2022-10-19T10:28:58;11.55;;;2.83;;
74191;SDS011;62551;51.180;4.366;2022-10-19T10:31:26;10.75;;;3.30;;
74191;SDS011;62551;51.180;4.366;2022-10-19T10:33:55;6.85;;;2.80;;
74191;SDS011;62551;51.180;4.366;2022-10-19T10:36:25;9.07;;;3.53;;
74191;SDS011;62551;51.180;4.366;2022-10-19T10:38:55;8.68;;;3.10;;
74191;SDS011;62551;51.180;4.366;2022-10-19T10:41:24;7.35;;;3.20;;
74191;SDS011;62551;51.180;4.366;2022-10-19T10:43:55;7.82;;;2.83;;
74191;SDS011;62551;51.180;4.366;2022-10-19T10:46:24;6.57;;;3.42;;
74191;SDS011;62551;51.180;4.366;2022-10-19T10:48:54;9.70;;;2.95;;
74191;SDS011;62551;51.180;4.366;2022-10-19T10:51:22;10.93;;;3.40;;
74191;SDS011;62551;51.180;4.366;2022-10-19T10:53:51;6.00;;;3.47;;
74191;SDS011;62551;51.180;4.366;2022-10-19T10:56:32;10.45;;;3.05;;
74191;SDS011;62551;51.180;4.366;2022-10-19T10:59:01;7.32;;;3.30;;
74191;SDS011;62551;51.180;4.366;2022-10-19T11:01:31;5.45;;;3.33;;
74191;SDS011;62551;51.180;4.366;2022-10-19T11:04:00;5.40;;;3.33;;
74191;SDS011;62551;51.180;4.366;2022-10-19T11:06:27;10.43;;;3.42;;
74191;SDS011;62551;51.180;4.366;2022-10-19T11:08:58;7.20;;;3.60;;
74191;SDS011;62551;51.180;4.366;2022-10-19T11:11:29;7.45;;;3.17;;
74191;SDS011;62551;51.180;4.366;2022-10-19T11:13:59;10.02;;;3.70;;
74191;SDS011;62551;51.180;4.366;2022-10-19T11:16:30;8.57;;;2.75;;
74191;SDS011;62551;51.180;4.366;2022-10-19T11:19:00;8.55;;;3.60;;
74191;SDS011;62551;51.180;4.366;2022-10-19T11:21:29;9.10;;;3.25;;
74191;SDS011;62551;51.180;4.366;2022-10-19T11:24:00;7.82;;;3.17;;
74191;SDS011;62551;51.180;4.366;2022-10-19T11:26:34;8.40;;;3.05;;
74191;SDS011;62551;51.180;4.366;2022-10-19T11:29:09;7.68;;;3.05;;
74191;SDS011;62551;51.180;4.366;2022-10-19T11:31:43;7.50;;;2.80;;
74191;SDS011;62551;51.180;4.366;2022-10-19T11:34:14;6.38;;;2.63;;
74191;SDS011;62551;51.180;4.366;2022-10-19T11:36:47;9.73;;;3.17;;
74191;SDS011;62551;51.180;4.366;2022-10-19T11:39:23;7.50;;;3.00;;
74191;SDS011;62551;51.180;4.366;2022-10-19T11:41:56;7.38;;;3.22;;
74191;SDS011;62551;51.180;4.366;2022-10-19T11:44:29;5.90;;;2.97;;
74191;SDS011;62551;51.180;4.366;2022-10-19T11:47:06;7.38;;;3.08;;
74191;SDS011;62551;51.180;4.366;2022-10-19T11:49:40;6.97;;;2.92;;
74191;SDS011;62551;51.180;4.366;2022-10-19T11:52:11;7.82;;;3.30;;
74191;SDS011;62551;51.180;4.366;2022-10-19T11:54:43;7.65;;;3.17;;
74191;SDS011;62551;51.180;4.366;2022-10-19T11:57:15;8.90;;;3.28;;
74191;SDS011;62551;51.180;4.366;2022-10-19T11:59:48;6.60;;;2.95;;
74191;SDS011;62551;51.180;4.366;2022-10-19T12:02:25;8.13;;;3.13;;
74191;SDS011;62551;51.180;4.366;2022-10-19T12:04:57;6.72;;;2.85;;
74191;SDS011;62551;51.180;4.366;2022-10-19T12:07:30;8.80;;;3.42;;
74191;SDS011;62551;51.180;4.366;2022-10-19T12:10:01;9.05;;;3.72;;
74191;SDS011;62551;51.180;4.366;2022-10-19T12:12:29;6.95;;;3.20;;
74191;SDS011;62551;51.180;4.366;2022-10-19T12:15:02;6.03;;;2.92;;
74191;SDS011;62551;51.180;4.366;2022-10-19T12:17:31;8.23;;;3.20;;
74191;SDS011;62551;51.180;4.366;2022-10-19T12:20:00;6.78;;;2.85;;
74191;SDS011;62551;51.180;4.366;2022-10-19T12:22:28;8.73;;;3.17;;
74191;SDS011;62551;51.180;4.366;2022-10-19T12:24:56;8.32;;;3.55;;
74191;SDS011;62551;51.180;4.366;2022-10-19T12:27:25;9.48;;;3.40;;
74191;SDS011;62551;51.180;4.366;2022-10-19T12:29:54;6.28;;;3.58;;
74191;SDS011;62551;51.180;4.366;2022-10-19T12:32:24;7.60;;;3.30;;
74191;SDS011;62551;51.180;4.366;2022-10-19T12:34:55;8.43;;;3.10;;
74191;SDS011;62551;51.180;4.366;2022-10-19T12:37:24;7.38;;;3.17;;
74191;SDS011;62551;51.180;4.366;2022-10-19T12:39:55;7.10;;;2.63;;
74191;SDS011;62551;51.180;4.366;2022-10-19T12:42:25;6.22;;;2.80;;
74191;SDS011;62551;51.180;4.366;2022-10-19T12:47:38;5.97;;;3.08;;
74191;SDS011;62551;51.180;4.366;2022-10-19T12:50:07;6.70;;;2.92;;
74191;SDS011;62551;51.180;4.366;2022-10-19T12:52:35;10.00;;;3.30;;
74191;SDS011;62551;51.180;4.366;2022-10-19T12:58:01;10.52;;;3.50;;
74191;SDS011;62551;51.180;4.366;2022-10-19T13:00:30;7.55;;;3.10;;
74191;SDS011;62551;51.180;4.366;2022-10-19T13:02:58;8.40;;;2.95;;
74191;SDS011;62551;51.180;4.366;2022-10-19T13:05:28;7.53;;;3.33;;
74191;SDS011;62551;51.180;4.366;2022-10-19T13:07:56;8.20;;;3.30;;
74191;SDS011;62551;51.180;4.366;2022-10-19T13:10:25;4.88;;;2.97;;
74191;SDS011;62551;51.180;4.366;2022-10-19T13:12:53;6.40;;;3.15;;
74191;SDS011;62551;51.180;4.366;2022-10-19T13:21:08;8.70;;;3.38;;
74191;SDS011;62551;51.180;4.366;2022-10-19T13:23:37;6.05;;;3.10;;
74191;SDS011;62551;51.180;4.366;2022-10-19T13:29:22;7.88;;;2.67;;
74191;SDS011;62551;51.180;4.366;2022-10-19T13:31:50;6.53;;;3.25;;
74191;SDS011;62551;51.180;4.366;2022-10-19T13:34:17;7.38;;;3.08;;
74191;SDS011;62551;51.180;4.366;2022-10-19T13:36:58;10.73;;;3.22;;
74191;SDS011;62551;51.180;4.366;2022-10-19T13:39:26;8.38;;;3.28;;
74191;SDS011;62551;51.180;4.366;2022-10-19T13:41:54;6.43;;;3.63;;
74191;SDS011;62551;51.180;4.366;2022-10-19T13:44:22;8.75;;;3.47;;
74191;SDS011;62551;51.180;4.366;2022-10-19T13:46:56;8.73;;;3.10;;
74191;SDS011;62551;51.180;4.366;2022-10-19T13:49:47;8.25;;;3.35;;
74191;SDS011;62551;51.180;4.366;2022-10-19T13:52:34;7.82;;;3.17;;
74191;SDS011;62551;51.180;4.366;2022-10-19T13:55:11;7.70;;;3.10;;
74191;SDS011;62551;51.180;4.366;2022-10-19T13:57:44;7.13;;;3.67;;
74191;SDS011;62551;51.180;4.366;2022-10-19T14:00:15;11.82;;;3.80;;
74191;SDS011;62551;51.180;4.366;2022-10-19T14:03:08;7.00;;;3.03;;
74191;SDS011;62551;51.180;4.366;2022-10-19T14:05:42;6.35;;;3.22;;
74191;SDS011;62551;51.180;4.366;2022-10-19T14:08:19;6.22;;;3.25;;
74191;SDS011;62551;51.180;4.366;2022-10-19T14:10:57;7.72;;;3.53;;
74191;SDS011;62551;51.180;4.366;2022-10-19T14:13:24;7.25;;;3.67;;
74191;SDS011;62551;51.180;4.366;2022-10-19T14:15:52;9.85;;;3.65;;
74191;SDS011;62551;51.180;4.366;2022-10-19T14:18:23;8.10;;;3.33;;
74191;SDS011;62551;51.180;4.366;2022-10-19T14:20:57;10.25;;;3.75;;
74191;SDS011;62551;51.180;4.366;2022-10-19T14:23:26;6.35;;;3.50;;
74191;SDS011;62551;51.180;4.366;2022-10-19T14:25:55;7.97;;;3.83;;
74191;SDS011;62551;51.180;4.366;2022-10-19T14:28:23;12.10;;;3.78;;
74191;SDS011;62551;51.180;4.366;2022-10-19T14:30:54;10.07;;;3.92;;
74191;SDS011;62551;51.180;4.366;2022-10-19T14:33:22;10.68;;;3.88;;
74191;SDS011;62551;51.180;4.366;2022-10-19T14:35:50;8.68;;;3.63;;
74191;SDS011;62551;51.180;4.366;2022-10-19T14:38:18;7.25;;;3.13;;
74191;SDS011;62551;51.180;4.366;2022-10-19T14:40:47;8.30;;;3.30;;
74191;SDS011;62551;51.180;4.366;2022-10-19T14:43:18;8.50;;;3.63;;
74191;SDS011;62551;51.180;4.366;2022-10-19T14:48:27;8.38;;;3.58;;
74191;SDS011;62551;51.180;4.366;2022-10-19T14:50:55;9.60;;;3.95;;
74191;SDS011;62551;51.180;4.366;2022-10-19T14:53:29;8.68;;;3.83;;
74191;SDS011;62551;51.180;4.366;2022-10-19T14:55:59;7.18;;;3.20;;
74191;SDS011;62551;51.180;4.366;2022-10-19T14:58:27;6.65;;;2.92;;
74191;SDS011;62551;51.180;4.366;2022-10-19T15:00:58;7.90;;;3.50;;
74191;SDS011;62551;51.180;4.366;2022-10-19T15:03:26;7.82;;;3.65;;
74191;SDS011;62551;51.180;4.366;2022-10-19T15:05:55;8.82;;;3.58;;
74191;SDS011;62551;51.180;4.366;2022-10-19T15:08:23;7.88;;;3.55;;
74191;SDS011;62551;51.180;4.366;2022-10-19T15:10:56;8.30;;;3.40;;
74191;SDS011;62551;51.180;4.366;2022-10-19T15:13:25;7.32;;;3.38;;
74191;SDS011;62551;51.180;4.366;2022-10-19T15:15:53;6.25;;;3.40;;
74191;SDS011;62551;51.180;4.366;2022-10-19T15:18:21;7.45;;;3.45;;
74191;SDS011;62551;51.180;4.366;2022-10-19T15:20:59;8.82;;;3.22;;